Time;durP1;ratioP1;P1;durP2;ratioP2;P2;SDS_P1;SDS_P2;PMS_P1;PMS_P2;Temp;Humidity;BMP_temperature;BMP_pressure;BME280_temperature;BME280_humidity;BME280_pressure;Samples;Min_cycle;Max_cycle;Signal;HPM_P1;HPM_P2
2024/04/08 00:01:15;;;;;;;7.00;3.13;;;18.80;59.50;;;;;;4989216;28;20183;-68
2024/04/08 00:03:41;;;;;;;12.10;3.40;;;18.80;64.80;;;;;;4992500;28;20429;-69
2024/04/08 00:06:06;;;;;;;6.93;3.20;;;18.70;67.30;;;;;;4992305;28;20194;-69
2024/04/08 00:08:32;;;;;;;11.13;3.27;;;18.60;65.30;;;;;;4986530;28;20199;-69
2024/04/08 00:11:04;;;;;;;7.43;3.67;;;18.60;66.30;;;;;;4985492;28;20185;-68
2024/04/08 00:13:30;;;;;;;6.40;3.67;;;18.50;65.80;;;;;;4992160;28;20250;-68
2024/04/08 00:15:59;;;;;;;7.10;4.00;;;18.50;64.70;;;;;;4992319;28;20454;-69
2024/04/08 00:18:24;;;;;;;16.43;4.27;;;18.50;64.80;;;;;;4984516;28;20184;-69
2024/04/08 00:21:05;;;;;;;5.50;3.60;;;18.40;65.70;;;;;;4985276;28;20449;-69
2024/04/08 00:23:31;;;;;;;8.83;3.90;;;18.40;65.50;;;;;;4995785;28;20187;-68
2024/04/08 00:26:05;;;;;;;10.07;3.90;;;18.30;66.90;;;;;;4990546;28;20533;-69
2024/04/08 00:28:30;;;;;;;5.50;3.30;;;18.30;66.20;;;;;;4993469;28;20415;-69
2024/04/08 00:31:03;;;;;;;8.47;4.47;;;18.30;72.40;;;;;;4993515;28;20473;-69
2024/04/08 00:33:30;;;;;;;10.17;3.77;;;18.20;70.40;;;;;;4995919;28;20266;-68
2024/04/08 00:35:56;;;;;;;7.67;3.57;;;18.20;72.00;;;;;;4994287;28;20453;-69
2024/04/08 00:38:21;;;;;;;6.80;3.40;;;18.20;70.50;;;;;;4994609;28;20415;-68
2024/04/08 00:40:47;;;;;;;7.07;3.60;;;18.20;66.70;;;;;;4980454;28;20188;-68
2024/04/08 00:43:12;;;;;;;9.67;4.10;;;18.30;63.60;;;;;;4976136;28;20196;-69
2024/04/08 00:45:40;;;;;;;8.70;4.10;;;18.40;65.10;;;;;;4980745;28;20187;-69
2024/04/08 00:48:08;;;;;;;13.20;4.43;;;18.30;67.80;;;;;;4994607;28;20171;-68
2024/04/08 00:50:36;;;;;;;11.30;3.37;;;18.30;70.40;;;;;;4983742;28;20506;-68
2024/04/08 00:53:01;;;;;;;5.63;4.03;;;18.30;70.90;;;;;;4995451;28;20948;-68
2024/04/08 00:55:28;;;;;;;7.33;3.83;;;18.30;82.30;;;;;;4993619;28;20481;-69
2024/04/08 00:57:56;;;;;;;7.53;3.60;;;18.20;83.60;;;;;;4975239;28;20223;-69
2024/04/08 01:00:21;;;;;;;10.40;4.33;;;18.20;83.80;;;;;;4979888;28;21108;-69
2024/04/08 01:02:47;;;;;;;7.00;3.60;;;18.00;85.40;;;;;;4990843;28;20459;-68
2024/04/08 01:05:14;;;;;;;10.40;4.57;;;17.90;87.70;;;;;;4994494;28;20195;-69
2024/04/08 01:07:41;;;;;;;7.93;3.67;;;17.70;85.90;;;;;;4994037;28;20176;-69
2024/04/08 01:10:08;;;;;;;12.10;4.20;;;17.70;88.30;;;;;;4984274;28;20428;-69
2024/04/08 01:12:34;;;;;;;9.10;4.03;;;17.70;84.10;;;;;;4993524;28;20437;-69
2024/04/08 01:15:00;;;;;;;9.37;3.40;;;17.70;82.70;;;;;;4994322;28;20466;-69
2024/04/08 01:17:26;;;;;;;9.53;3.23;;;17.80;81.60;;;;;;4993209;28;20547;-69
2024/04/08 01:19:51;;;;;;;10.73;3.80;;;17.80;88.00;;;;;;4994442;28;20473;-69
2024/04/08 01:22:17;;;;;;;10.47;3.37;;;17.80;86.80;;;;;;4977592;28;20208;-68
2024/04/08 01:24:43;;;;;;;8.03;4.07;;;17.70;92.90;;;;;;4975269;28;20785;-68
2024/04/08 01:27:08;;;;;;;8.70;4.67;;;17.70;91.20;;;;;;4978111;28;20515;-69
2024/04/08 01:29:35;;;;;;;8.50;3.87;;;17.70;88.60;;;;;;4978303;28;20184;-69
2024/04/08 01:32:02;;;;;;;7.83;4.17;;;17.80;84.70;;;;;;4982885;28;20192;-68
2024/04/08 01:34:27;;;;;;;10.43;3.63;;;17.80;84.80;;;;;;4975135;28;20463;-69
2024/04/08 01:36:53;;;;;;;8.37;4.57;;;17.90;83.50;;;;;;4982844;28;20438;-69
2024/04/08 01:39:18;;;;;;;5.33;2.90;;;17.90;86.30;;;;;;4977834;28;20184;-68
2024/04/08 01:41:44;;;;;;;6.30;3.53;;;17.90;85.60;;;;;;4984394;28;20282;-68
2024/04/08 01:44:09;;;;;;;11.40;3.50;;;17.90;76.10;;;;;;4979437;28;20272;-69
2024/04/08 01:46:35;;;;;;;15.63;4.57;;;18.00;77.20;;;;;;4986431;28;20279;-68
2024/04/08 01:49:00;;;;;;;11.80;3.40;;;18.00;76.60;;;;;;4993701;28;20226;-69
2024/04/08 01:51:26;;;;;;;7.87;3.80;;;18.00;74.80;;;;;;4981428;28;20234;-69
2024/04/08 01:53:51;;;;;;;4.80;3.60;;;18.00;76.10;;;;;;4974879;28;20698;-68
2024/04/08 01:56:17;;;;;;;11.20;4.40;;;18.00;77.10;;;;;;4978258;28;20218;-69
2024/04/08 01:58:42;;;;;;;8.77;3.77;;;18.00;80.60;;;;;;4987316;28;20190;-68
2024/04/08 02:01:08;;;;;;;8.37;3.80;;;18.00;79.60;;;;;;4989150;28;20188;-69
2024/04/08 02:03:34;;;;;;;9.73;3.97;;;17.90;78.80;;;;;;4993270;28;20180;-69
2024/04/08 02:05:59;;;;;;;8.73;4.07;;;17.80;80.50;;;;;;4994035;28;20196;-69
2024/04/08 02:08:25;;;;;;;7.03;4.03;;;17.80;79.30;;;;;;4992063;28;20184;-69
2024/04/08 02:10:52;;;;;;;8.73;4.07;;;17.80;79.90;;;;;;4974965;28;20168;-70
2024/04/08 02:13:18;;;;;;;7.90;3.50;;;17.80;82.30;;;;;;4980921;28;20752;-69
2024/04/08 02:15:43;;;;;;;8.57;4.13;;;17.80;85.00;;;;;;4979593;28;20477;-68
2024/04/08 02:18:09;;;;;;;10.87;3.33;;;17.70;86.00;;;;;;4992573;28;20175;-69
2024/04/08 02:20:39;;;;;;;11.00;4.00;;;17.70;92.60;;;;;;4976294;28;20184;-68
2024/04/08 02:23:05;;;;;;;10.40;3.87;;;17.60;93.20;;;;;;4983474;28;21019;-68
2024/04/08 02:25:30;;;;;;;8.70;4.00;;;17.50;92.10;;;;;;4993698;28;20442;-69
2024/04/08 02:27:57;;;;;;;8.30;4.33;;;17.50;90.90;;;;;;4991403;28;20171;-68
2024/04/08 02:30:22;;;;;;;9.93;4.30;;;17.50;92.10;;;;;;4990426;28;20176;-68
2024/04/08 02:32:48;;;;;;;9.37;4.13;;;17.40;91.40;;;;;;4981200;28;20940;-68
2024/04/08 02:35:16;;;;;;;7.80;4.13;;;17.40;92.30;;;;;;4979594;28;20199;-69
2024/04/08 02:37:42;;;;;;;5.07;3.80;;;17.30;91.40;;;;;;4992766;28;20179;-68
2024/04/08 02:40:10;;;;;;;15.43;4.10;;;17.10;99.80;;;;;;4988526;28;20442;-69
2024/04/08 02:42:36;;;;;;;7.07;3.93;;;16.90;99.90;;;;;;4989723;28;20450;-69
2024/04/08 02:45:03;;;;;;;6.77;4.40;;;16.80;99.90;;;;;;4975031;28;20474;-68
2024/04/08 02:47:28;;;;;;;12.07;5.10;;;16.80;99.00;;;;;;4977543;28;20183;-68
2024/04/08 02:49:54;;;;;;;9.50;4.37;;;16.70;98.90;;;;;;4980931;28;20435;-68
2024/04/08 02:52:19;;;;;;;5.20;3.47;;;16.80;96.90;;;;;;4981740;28;20183;-69
2024/04/08 02:54:45;;;;;;;9.03;4.03;;;16.70;96.70;;;;;;4988362;28;20278;-69
2024/04/08 02:57:10;;;;;;;10.40;4.10;;;16.70;96.90;;;;;;4987509;28;20553;-68
2024/04/08 02:59:36;;;;;;;6.33;3.70;;;16.70;96.90;;;;;;4973748;28;20184;-68
2024/04/08 03:02:02;;;;;;;9.17;4.23;;;16.70;97.90;;;;;;4978469;28;20250;-68
2024/04/08 03:04:27;;;;;;;6.87;3.37;;;16.70;98.20;;;;;;4991473;28;20274;-69
2024/04/08 03:06:53;;;;;;;10.93;4.37;;;16.60;99.30;;;;;;4989631;28;20573;-69
2024/04/08 03:09:19;;;;;;;7.03;3.57;;;16.50;99.90;;;;;;4992244;28;20189;-69
2024/04/08 03:11:45;;;;;;;13.57;4.40;;;16.50;99.90;;;;;;4983566;28;20180;-68
2024/04/08 03:14:11;;;;;;;8.37;3.77;;;16.40;99.90;;;;;;4989243;28;20191;-68
2024/04/08 03:16:36;;;;;;;5.47;4.43;;;16.30;99.90;;;;;;4991451;28;20209;-69
2024/04/08 03:19:02;;;;;;;14.07;11.40;;;16.30;99.90;;;;;;4973806;28;20484;-68
2024/04/08 03:21:27;;;;;;;12.73;5.97;;;16.30;99.90;;;;;;4981625;28;20210;-68
2024/04/08 03:23:53;;;;;;;9.63;4.80;;;16.30;99.90;;;;;;4991977;28;20536;-68
2024/04/08 03:26:18;;;;;;;9.57;4.17;;;16.30;99.50;;;;;;4979747;28;20263;-68
2024/04/08 03:28:44;;;;;;;10.33;3.60;;;16.30;99.90;;;;;;4976278;28;20212;-68
2024/04/08 03:31:10;;;;;;;13.80;4.87;;;16.30;99.10;;;;;;4986192;28;20200;-68
2024/04/08 03:33:35;;;;;;;7.43;4.00;;;16.30;99.50;;;;;;4980055;28;20611;-68
2024/04/08 03:36:08;;;;;;;6.90;3.73;;;16.20;98.30;;;;;;4979140;28;20531;-68
2024/04/08 03:38:33;;;;;;;8.33;5.57;;;16.30;98.10;;;;;;4976943;28;20184;-69
2024/04/08 03:41:02;;;;;;;16.20;9.77;;;16.30;98.80;;;;;;4987550;28;20481;-69
2024/04/08 03:43:28;;;;;;;16.73;4.97;;;16.20;99.90;;;;;;4985224;28;20624;-68
2024/04/08 03:45:54;;;;;;;9.57;4.30;;;16.20;99.90;;;;;;4986139;28;20442;-68
2024/04/08 03:48:20;;;;;;;7.23;3.67;;;16.20;99.90;;;;;;4978732;28;20430;-68
2024/04/08 03:50:45;;;;;;;12.63;5.17;;;16.10;99.90;;;;;;4973226;28;20646;-68
2024/04/08 03:53:11;;;;;;;15.50;5.77;;;16.00;99.90;;;;;;4982415;28;20437;-68
2024/04/08 03:55:37;;;;;;;8.20;4.00;;;16.00;99.90;;;;;;4979204;28;20230;-69
2024/04/08 03:58:02;;;;;;;13.20;4.40;;;16.00;99.90;;;;;;4982799;28;20188;-68
2024/04/08 04:00:28;;;;;;;8.57;3.73;;;16.00;99.90;;;;;;4979528;28;20191;-68
2024/04/08 04:02:54;;;;;;;14.37;5.13;;;16.00;99.90;;;;;;4995755;28;20239;-68
2024/04/08 04:05:20;;;;;;;13.83;5.30;;;16.00;99.90;;;;;;4982519;28;20211;-68
2024/04/08 04:07:45;;;;;;;10.20;3.93;;;15.90;99.90;;;;;;4981144;28;20423;-68
2024/04/08 04:10:11;;;;;;;12.10;4.10;;;15.90;99.90;;;;;;4992010;28;20258;-69
2024/04/08 04:12:38;;;;;;;11.27;5.43;;;15.90;99.90;;;;;;4990465;28;20188;-69
2024/04/08 04:15:05;;;;;;;6.77;3.90;;;15.90;99.90;;;;;;4980698;28;20491;-69
2024/04/08 04:19:05;;;;;;;8.37;3.63;;;15.70;99.90;;;;;;5469969;26;20547;-69
2024/04/08 04:21:31;;;;;;;6.90;4.80;;;15.50;99.90;;;;;;5468903;26;20510;-69
2024/04/08 04:23:56;;;;;;;11.07;4.87;;;15.40;99.90;;;;;;5470144;26;20638;-69
2024/04/08 04:26:22;;;;;;;9.00;3.50;;;15.30;99.90;;;;;;5456264;26;20218;-69
2024/04/08 04:28:47;;;;;;;5.80;4.10;;;15.20;99.90;;;;;;5443120;26;20222;-68
2024/04/08 04:31:13;;;;;;;17.40;5.40;;;15.20;99.90;;;;;;5467837;26;20225;-68
2024/04/08 04:33:38;;;;;;;12.30;5.37;;;15.30;99.90;;;;;;5469267;26;20573;-68
2024/04/08 04:36:04;;;;;;;12.80;7.70;;;15.30;99.90;;;;;;5455120;26;20287;-68
2024/04/08 04:38:30;;;;;;;13.10;5.83;;;15.30;99.90;;;;;;5433767;26;20225;-68
2024/04/08 04:41:06;;;;;;;11.37;4.97;;;15.30;99.90;;;;;;5436227;26;20234;-68
2024/04/08 04:43:32;;;;;;;8.93;4.93;;;15.30;99.90;;;;;;5433933;26;20218;-68
2024/04/08 04:45:58;;;;;;;9.77;5.07;;;15.30;99.90;;;;;;5446134;26;20971;-68
2024/04/08 04:48:24;;;;;;;6.20;4.57;;;15.30;99.90;;;;;;5446562;26;20519;-68
2024/04/08 04:50:50;;;;;;;8.93;4.13;;;15.20;99.90;;;;;;5458388;26;20451;-68
2024/04/08 04:53:15;;;;;;;8.20;4.20;;;15.20;99.90;;;;;;5467103;26;20615;-68
2024/04/08 04:55:41;;;;;;;12.60;4.40;;;15.20;99.90;;;;;;5450262;26;20229;-68
2024/04/08 04:58:06;;;;;;;14.23;3.70;;;15.30;99.90;;;;;;5466277;26;20649;-68
2024/04/08 05:00:34;;;;;;;11.97;4.07;;;15.40;99.90;;;;;;5467609;26;20222;-68
2024/04/08 05:03:00;;;;;;;9.60;4.20;;;15.50;99.90;;;;;;5433644;26;20218;-68
2024/04/08 05:05:25;;;;;;;8.97;4.87;;;15.70;99.90;;;;;;5443737;26;20455;-68
2024/04/08 05:07:51;;;;;;;12.80;3.97;;;15.80;99.90;;;;;;5462799;26;20563;-68
2024/04/08 05:10:16;;;;;;;6.67;3.63;;;15.90;99.90;;;;;;5435588;26;20230;-68
2024/04/08 05:12:42;;;;;;;6.63;3.57;;;15.90;99.90;;;;;;5438820;26;20257;-68
2024/04/08 05:15:08;;;;;;;11.57;4.77;;;16.00;99.90;;;;;;5433776;26;20269;-68
2024/04/08 05:17:33;;;;;;;8.63;4.33;;;16.00;99.90;;;;;;5435242;26;20265;-68
2024/04/08 05:20:02;;;;;;;5.20;4.40;;;15.90;99.90;;;;;;5454943;26;20242;-68
2024/04/08 05:22:28;;;;;;;9.60;3.73;;;15.90;99.90;;;;;;5441003;26;20627;-68
2024/04/08 05:24:55;;;;;;;12.53;4.57;;;15.90;99.90;;;;;;5444023;26;20511;-68
2024/04/08 05:27:20;;;;;;;8.97;4.30;;;15.90;99.90;;;;;;5434483;26;20582;-68
2024/04/08 05:29:46;;;;;;;10.43;5.20;;;15.90;99.90;;;;;;5425207;26;20457;-68
2024/04/08 05:32:11;;;;;;;8.97;4.87;;;15.90;99.90;;;;;;5417922;26;20204;-68
2024/04/08 05:34:38;;;;;;;14.10;4.30;;;15.90;99.90;;;;;;5421326;26;20273;-68
2024/04/08 05:37:04;;;;;;;13.33;4.07;;;15.90;99.90;;;;;;5447249;26;20722;-68
2024/04/08 05:39:29;;;;;;;11.50;3.57;;;16.00;99.90;;;;;;5437956;26;20513;-68
2024/04/08 05:41:55;;;;;;;12.37;5.37;;;16.10;99.90;;;;;;5439313;26;20226;-68
2024/04/08 05:44:20;;;;;;;7.80;4.67;;;16.10;99.90;;;;;;5446114;26;20222;-68
2024/04/08 05:46:46;;;;;;;13.83;7.10;;;16.20;99.90;;;;;;5444453;26;20219;-68
2024/04/08 05:49:11;;;;;;;7.70;4.20;;;16.30;99.90;;;;;;5434109;26;20222;-68
2024/04/08 05:51:37;;;;;;;19.53;4.90;;;16.40;99.90;;;;;;5430070;26;20262;-68
2024/04/08 05:54:02;;;;;;;7.70;3.23;;;16.40;99.90;;;;;;5420298;26;20837;-68
2024/04/08 05:56:29;;;;;;;12.20;4.63;;;16.50;99.90;;;;;;5429059;26;20941;-68
2024/04/08 05:58:55;;;;;;;10.53;5.87;;;16.70;99.90;;;;;;5428801;26;20221;-68
2024/04/08 06:01:20;;;;;;;12.23;6.37;;;16.80;99.90;;;;;;5453226;26;20478;-68
2024/04/08 06:03:46;;;;;;;17.73;6.77;;;16.80;99.90;;;;;;5450514;26;20214;-68
2024/04/08 06:06:18;;;;;;;6.93;4.43;;;16.90;99.90;;;;;;5453320;26;20261;-68
2024/04/08 06:08:44;;;;;;;24.03;4.63;;;16.90;99.90;;;;;;5452702;26;20435;-68
2024/04/08 06:11:09;;;;;;;13.00;4.30;;;17.00;99.90;;;;;;5453286;26;20498;-68
2024/04/08 06:13:35;;;;;;;11.30;5.43;;;17.10;99.90;;;;;;5450489;26;20238;-68
2024/04/08 06:16:02;;;;;;;14.87;5.13;;;17.20;99.90;;;;;;5452636;26;20268;-68
2024/04/08 06:18:27;;;;;;;8.73;3.90;;;17.40;99.90;;;;;;5451834;26;20292;-68
2024/04/08 06:20:54;;;;;;;11.53;5.37;;;17.50;99.90;;;;;;5453200;26;20443;-68
2024/04/08 06:23:20;;;;;;;12.93;5.10;;;17.70;99.90;;;;;;5437921;26;20234;-68
2024/04/08 06:25:46;;;;;;;14.00;5.80;;;17.80;99.20;;;;;;5417023;26;20456;-68
2024/04/08 06:28:11;;;;;;;10.17;4.00;;;17.90;98.40;;;;;;5435981;26;20334;-68
2024/04/08 06:30:37;;;;;;;10.63;4.73;;;18.10;98.10;;;;;;5435984;26;20237;-68
2024/04/08 06:33:02;;;;;;;11.70;4.87;;;18.20;98.80;;;;;;5443040;26;20700;-68
2024/04/08 06:35:28;;;;;;;13.17;5.70;;;18.40;97.70;;;;;;5452823;26;20229;-68
2024/04/08 06:37:53;;;;;;;14.47;5.47;;;18.60;98.90;;;;;;5451768;26;20266;-67
2024/04/08 06:40:19;;;;;;;6.83;3.93;;;18.80;99.90;;;;;;5452784;26;20218;-69
2024/04/08 06:42:44;;;;;;;11.47;5.30;;;19.00;99.90;;;;;;5450050;26;20286;-68
2024/04/08 06:45:10;;;;;;;13.90;4.47;;;19.40;99.90;;;;;;5444988;26;20269;-67
2024/04/08 06:47:36;;;;;;;13.33;5.50;;;19.60;96.00;;;;;;5451264;26;20233;-67
2024/04/08 06:50:01;;;;;;;10.67;5.27;;;19.80;99.90;;;;;;5452166;26;20230;-68
2024/04/08 06:52:27;;;;;;;12.33;4.97;;;20.00;99.90;;;;;;5446857;26;20267;-69
2024/04/08 06:54:52;;;;;;;10.60;5.30;;;20.20;99.90;;;;;;5451455;26;20238;-69
2024/04/08 06:57:18;;;;;;;16.83;6.30;;;20.40;98.20;;;;;;5451505;26;20257;-69
2024/04/08 06:59:44;;;;;;;14.10;4.27;;;20.60;95.30;;;;;;5420640;26;20275;-69
2024/04/08 07:02:10;;;;;;;9.17;4.50;;;20.60;92.20;;;;;;5416628;26;20227;-69
2024/04/08 07:04:35;;;;;;;18.67;5.67;;;20.80;91.30;;;;;;5431439;26;20834;-70
2024/04/08 07:07:01;;;;;;;8.47;4.23;;;21.00;91.80;;;;;;5423968;26;20230;-70
2024/04/08 07:09:29;;;;;;;12.77;5.43;;;21.30;90.30;;;;;;5434098;26;20222;-69
2024/04/08 07:11:57;;;;;;;10.70;6.33;;;21.50;91.50;;;;;;5452039;26;20544;-68
2024/04/08 07:14:23;;;;;;;12.67;5.90;;;21.70;90.40;;;;;;5447539;26;20581;-70
2024/04/08 07:16:48;;;;;;;9.50;4.93;;;21.80;81.20;;;;;;5450248;26;20435;-70
2024/04/08 07:19:14;;;;;;;13.83;5.23;;;21.90;76.80;;;;;;5451639;26;20310;-70
2024/04/08 07:21:39;;;;;;;9.17;5.33;;;21.90;75.40;;;;;;5451155;26;20221;-70
2024/04/08 07:24:07;;;;;;;15.70;6.27;;;22.20;77.40;;;;;;5450444;26;20226;-70
2024/04/08 07:26:32;;;;;;;12.93;4.10;;;22.30;75.00;;;;;;5448185;26;20256;-69
2024/04/08 07:28:58;;;;;;;8.43;3.60;;;22.20;70.90;;;;;;5438575;26;20453;-70
2024/04/08 07:31:24;;;;;;;9.30;3.77;;;22.00;68.00;;;;;;5415346;26;20249;-70
2024/04/08 07:33:49;;;;;;;12.27;5.23;;;22.20;68.30;;;;;;5415782;26;20222;-69
2024/04/08 07:36:15;;;;;;;10.93;4.67;;;22.40;65.90;;;;;;5433688;26;20222;-70
2024/04/08 07:38:40;;;;;;;11.30;3.63;;;22.50;64.80;;;;;;5450509;26;20206;-70
2024/04/08 07:41:06;;;;;;;10.33;4.60;;;22.60;64.70;;;;;;5451858;26;20252;-70
2024/04/08 07:43:33;;;;;;;7.17;3.73;;;22.60;64.10;;;;;;5448906;26;20237;-70
2024/04/08 07:45:58;;;;;;;13.80;4.40;;;22.70;64.40;;;;;;5421056;26;20723;-70
2024/04/08 07:48:24;;;;;;;7.90;3.87;;;22.70;60.80;;;;;;5450443;26;20435;-70
2024/04/08 07:50:51;;;;;;;7.03;3.57;;;23.00;63.40;;;;;;5450681;26;20206;-70
2024/04/08 07:53:17;;;;;;;13.13;3.70;;;23.00;60.30;;;;;;5450316;26;20210;-68
2024/04/08 07:55:44;;;;;;;13.90;4.53;;;23.10;59.80;;;;;;5449577;26;20494;-68
2024/04/08 07:58:10;;;;;;;8.50;3.27;;;23.20;59.20;;;;;;5443409;26;20237;-68
2024/04/08 08:00:35;;;;;;;7.17;4.30;;;23.30;59.30;;;;;;5421545;26;20575;-68
2024/04/08 08:03:02;;;;;;;16.27;4.57;;;23.60;58.90;;;;;;5415044;26;20789;-69
2024/04/08 08:05:27;;;;;;;8.67;5.20;;;23.80;58.80;;;;;;5414720;26;20331;-69
2024/04/08 08:07:53;;;;;;;8.93;3.47;;;23.90;57.50;;;;;;5446881;26;20459;-69
2024/04/08 08:10:19;;;;;;;15.97;8.10;;;24.20;57.20;;;;;;5450471;26;20313;-68
2024/04/08 08:12:44;;;;;;;11.33;5.50;;;24.70;56.60;;;;;;5450780;26;20549;-68
2024/04/08 08:15:10;;;;;;;13.67;5.20;;;25.20;54.80;;;;;;5448306;26;20569;-68
2024/04/08 08:17:36;;;;;;;6.90;3.60;;;25.70;52.90;;;;;;5449378;26;20449;-68
2024/04/08 08:20:04;;;;;;;7.73;3.93;;;25.60;49.30;;;;;;5450235;26;20285;-68
2024/04/08 08:22:30;;;;;;;11.87;3.40;;;25.40;50.40;;;;;;5450632;26;20290;-69
2024/04/08 08:24:56;;;;;;;9.00;3.57;;;25.10;45.90;;;;;;5448010;26;20455;-69
2024/04/08 08:27:21;;;;;;;9.10;3.10;;;25.20;46.00;;;;;;5449475;26;20201;-69
2024/04/08 08:29:50;;;;;;;10.40;3.77;;;25.60;45.00;;;;;;5438562;26;20258;-68
2024/04/08 08:32:16;;;;;;;7.30;3.27;;;25.80;43.90;;;;;;5414538;26;20300;-69
2024/04/08 08:34:42;;;;;;;16.63;4.07;;;25.80;43.20;;;;;;5414769;26;21021;-69
2024/04/08 08:37:08;;;;;;;15.57;3.70;;;25.80;41.90;;;;;;5413516;26;20215;-68
2024/04/08 08:39:37;;;;;;;9.87;3.00;;;25.60;41.90;;;;;;5438174;26;20238;-69
2024/04/08 08:42:14;;;;;;;13.90;4.13;;;25.80;42.30;;;;;;5450321;26;20495;-69
2024/04/08 08:44:45;;;;;;;9.80;3.60;;;26.20;42.40;;;;;;5440994;26;20513;-69
2024/04/08 08:47:11;;;;;;;11.13;4.13;;;26.40;39.10;;;;;;5412817;26;20428;-70
2024/04/08 08:49:37;;;;;;;5.80;4.00;;;26.60;40.10;;;;;;5424750;26;21101;-67
2024/04/08 08:52:05;;;;;;;15.37;3.30;;;26.50;38.70;;;;;;5438749;26;20265;-67
2024/04/08 08:54:30;;;;;;;12.73;3.50;;;26.80;39.90;;;;;;5414407;26;20560;-67
2024/04/08 08:57:01;;;;;;;6.03;4.00;;;26.90;38.50;;;;;;5434618;26;20471;-68
2024/04/08 08:59:29;;;;;;;6.83;3.37;;;27.00;37.30;;;;;;5446342;26;20938;-69
2024/04/08 09:01:58;;;;;;;7.40;2.93;;;27.40;36.30;;;;;;5449280;26;20460;-68
2024/04/08 09:04:26;;;;;;;7.30;3.50;;;28.00;36.20;;;;;;5446308;26;20467;-69
2024/04/08 09:06:56;;;;;;;8.43;4.00;;;28.80;34.90;;;;;;5416632;26;20515;-69
2024/04/08 09:09:22;;;;;;;10.37;4.07;;;28.80;35.40;;;;;;5417409;26;20516;-69
2024/04/08 09:11:48;;;;;;;9.10;3.60;;;27.90;33.70;;;;;;5432395;26;20467;-69
2024/04/08 09:14:14;;;;;;;8.13;4.23;;;28.30;34.60;;;;;;5450941;26;20238;-69
2024/04/08 09:16:41;;;;;;;8.43;3.60;;;28.70;32.40;;;;;;5442671;26;20461;-69
2024/04/08 09:19:07;;;;;;;6.80;3.53;;;29.20;30.90;;;;;;5417549;26;20253;-69
2024/04/08 09:21:32;;;;;;;7.60;2.90;;;28.60;29.90;;;;;;5420732;26;20445;-70
2024/04/08 09:24:03;;;;;;;11.97;3.73;;;28.50;31.40;;;;;;5453051;26;20256;-68
2024/04/08 09:26:28;;;;;;;9.23;3.40;;;28.80;30.40;;;;;;5421625;26;20227;-68
2024/04/08 09:28:54;;;;;;;11.13;4.77;;;29.20;29.40;;;;;;5417227;26;20452;-69
2024/04/08 09:31:20;;;;;;;8.57;3.43;;;30.10;29.90;;;;;;5422020;26;20219;-72
2024/04/08 09:33:46;;;;;;;10.57;4.00;;;30.50;29.60;;;;;;5446763;26;20631;-68
2024/04/08 09:36:12;;;;;;;7.27;3.87;;;29.90;28.70;;;;;;5454292;26;20542;-67
2024/04/08 09:38:39;;;;;;;10.77;4.20;;;30.30;28.30;;;;;;5452193;26;20261;-67
2024/04/08 09:41:06;;;;;;;11.47;4.23;;;30.60;27.90;;;;;;5450859;26;20431;-68
2024/04/08 09:43:31;;;;;;;7.57;3.90;;;30.50;29.00;;;;;;5452384;26;21094;-67
2024/04/08 09:46:00;;;;;;;13.20;4.40;;;30.70;28.90;;;;;;5433758;26;20468;-67
2024/04/08 09:48:25;;;;;;;13.10;4.70;;;29.80;27.20;;;;;;5416405;26;20214;-68
2024/04/08 09:50:53;;;;;;;8.13;3.80;;;29.60;28.50;;;;;;5416753;26;20472;-68
2024/04/08 09:53:19;;;;;;;8.13;4.57;;;29.10;27.10;;;;;;5417217;26;20215;-69
2024/04/08 09:55:49;;;;;;;11.03;3.47;;;30.30;27.90;;;;;;5440066;26;20512;-67
2024/04/08 09:58:17;;;;;;;9.13;3.50;;;31.50;25.60;;;;;;5451794;26;20214;-69
2024/04/08 10:00:45;;;;;;;11.73;4.07;;;31.50;24.60;;;;;;5450247;26;20511;-69
2024/04/08 10:03:15;;;;;;;8.40;3.60;;;30.40;24.60;;;;;;5452817;26;20477;-67
2024/04/08 10:05:42;;;;;;;10.33;3.20;;;31.40;24.20;;;;;;5450189;26;20459;-66
2024/04/08 10:08:09;;;;;;;6.00;3.10;;;32.20;22.90;;;;;;5418588;26;20872;-67
2024/04/08 10:10:35;;;;;;;7.47;3.10;;;32.50;22.30;;;;;;5433806;26;20464;-68
2024/04/08 10:13:01;;;;;;;4.30;2.70;;;33.40;21.60;;;;;;5451165;26;20475;-67
2024/04/08 10:15:34;;;;;;;11.90;3.30;;;34.20;20.20;;;;;;5438259;26;20900;-68
2024/04/08 10:17:59;;;;;;;13.27;3.53;;;34.10;18.30;;;;;;5433998;26;20461;-67
2024/04/08 10:20:25;;;;;;;7.80;3.87;;;34.20;19.10;;;;;;5432207;26;20517;-67
2024/04/08 10:22:52;;;;;;;8.87;3.97;;;33.30;19.40;;;;;;5435422;26;20264;-68
2024/04/08 10:25:37;;;;;;;12.67;3.23;;;32.60;19.90;;;;;;5432744;26;20853;-67
2024/04/08 10:28:15;;;;;;;7.23;2.83;;;33.30;19.40;;;;;;5415136;26;20469;-67
2024/04/08 10:30:43;;;;;;;6.60;2.83;;;33.30;17.40;;;;;;5430697;26;20460;-67
2024/04/08 10:33:10;;;;;;;8.00;2.43;;;33.80;16.60;;;;;;5431534;26;20473;-68
2024/04/08 10:35:36;;;;;;;4.37;2.47;;;34.10;16.20;;;;;;5433968;26;20581;-67
2024/04/08 10:38:02;;;;;;;6.80;2.70;;;34.30;15.50;;;;;;5434641;26;20534;-68
2024/04/08 10:40:27;;;;;;;5.63;2.90;;;34.40;15.00;;;;;;5426141;26;20231;-68
2024/04/08 10:42:55;;;;;;;10.50;3.20;;;34.70;14.90;;;;;;5416312;26;20513;-67
2024/04/08 10:45:21;;;;;;;5.80;3.30;;;35.60;14.80;;;;;;5416891;26;20265;-67
2024/04/08 10:47:47;;;;;;;6.37;2.53;;;35.80;14.70;;;;;;5450614;26;20463;-67
2024/04/08 10:50:13;;;;;;;7.53;3.60;;;35.40;14.40;;;;;;5450357;26;20557;-68
2024/04/08 10:52:42;;;;;;;7.00;3.40;;;36.20;13.30;;;;;;5452674;26;20222;-67
2024/04/08 10:55:08;;;;;;;8.00;5.13;;;36.70;13.70;;;;;;5451516;26;20326;-68
2024/04/08 10:57:34;;;;;;;7.23;3.20;;;37.40;12.60;;;;;;5450183;26;20508;-67
2024/04/08 11:00:02;;;;;;;8.27;3.83;;;36.20;13.10;;;;;;5452116;26;20503;-67
2024/04/08 11:02:28;;;;;;;6.40;3.17;;;36.40;12.20;;;;;;5449174;26;20515;-68
2024/04/08 11:04:54;;;;;;;5.03;2.73;;;35.90;13.10;;;;;;5451979;26;20495;-67
2024/04/08 11:07:20;;;;;;;4.90;2.90;;;36.20;13.50;;;;;;5450497;26;20691;-70
2024/04/08 11:09:46;;;;;;;11.63;3.50;;;36.90;13.00;;;;;;5449123;26;20270;-66
2024/04/08 11:12:15;;;;;;;8.37;2.97;;;36.70;12.40;;;;;;5452198;26;20428;-64
2024/04/08 11:14:45;;;;;;;8.10;3.33;;;36.30;11.30;;;;;;5451424;26;20218;-64
2024/04/08 11:17:14;;;;;;;9.20;3.90;;;35.00;11.70;;;;;;5446220;26;20459;-65
2024/04/08 11:19:43;;;;;;;6.87;2.87;;;34.60;11.90;;;;;;5451939;26;20443;-65
2024/04/08 11:22:09;;;;;;;7.40;3.50;;;36.00;11.90;;;;;;5452089;26;20431;-67
2024/04/08 11:24:41;;;;;;;8.80;3.27;;;36.10;10.90;;;;;;5451795;26;20499;-67
2024/04/08 11:27:11;;;;;;;9.50;3.27;;;36.50;10.70;;;;;;5428808;26;20625;-67
2024/04/08 11:29:44;;;;;;;5.73;3.20;;;36.50;11.00;;;;;;5416189;26;20436;-67
2024/04/08 11:32:13;;;;;;;10.60;3.70;;;36.50;10.70;;;;;;5429500;26;20459;-67
2024/04/08 11:34:42;;;;;;;10.03;3.20;;;35.50;11.20;;;;;;5424956;26;20460;-68
2024/04/08 11:37:09;;;;;;;8.83;3.27;;;36.00;11.70;;;;;;5415178;26;20433;-67
2024/04/08 11:39:39;;;;;;;11.23;3.93;;;36.50;11.00;;;;;;5416033;26;20571;-68
2024/04/08 11:42:06;;;;;;;5.60;3.03;;;36.50;11.00;;;;;;5433247;26;20459;-68
2024/04/08 11:44:32;;;;;;;5.03;3.20;;;36.30;10.60;;;;;;5451853;26;21021;-68
2024/04/08 11:46:58;;;;;;;11.70;3.50;;;37.80;10.50;;;;;;5448328;26;20565;-68
2024/04/08 11:49:24;;;;;;;6.63;3.60;;;38.30;10.50;;;;;;5452033;26;20976;-68
2024/04/08 11:51:49;;;;;;;11.87;3.63;;;38.80;10.40;;;;;;5451897;26;20319;-67
2024/04/08 11:54:18;;;;;;;7.93;3.50;;;39.00;10.70;;;;;;5429673;26;20230;-67
2024/04/08 11:56:44;;;;;;;10.07;5.10;;;39.30;10.10;;;;;;5416398;26;20210;-67
2024/04/08 11:59:10;;;;;;;10.10;3.60;;;39.10;10.50;;;;;;5436392;26;20582;-67
2024/04/08 12:01:36;;;;;;;8.23;3.83;;;37.60;11.10;;;;;;5441781;26;20996;-67
2024/04/08 12:04:06;;;;;;;13.30;4.53;;;37.10;10.40;;;;;;5451723;26;20218;-67
2024/04/08 12:06:31;;;;;;;4.90;3.17;;;37.80;10.70;;;;;;5450469;26;20480;-68
2024/04/08 12:08:57;;;;;;;11.60;4.00;;;37.70;10.80;;;;;;5418155;26;20818;-67
2024/04/08 12:11:23;;;;;;;10.57;3.40;;;38.00;10.40;;;;;;5413799;26;20307;-67
2024/04/08 12:13:49;;;;;;;8.93;3.30;;;38.40;10.30;;;;;;5415563;26;20270;-67
2024/04/08 12:16:15;;;;;;;16.20;4.17;;;38.50;10.30;;;;;;5415102;26;20517;-68
2024/04/08 12:18:42;;;;;;;12.60;4.53;;;38.70;10.80;;;;;;5416582;26;20453;-70
2024/04/08 12:21:08;;;;;;;8.50;3.83;;;38.90;11.10;;;;;;5429859;26;20504;-69
2024/04/08 12:23:34;;;;;;;5.80;3.30;;;39.30;10.40;;;;;;5432807;26;20447;-66
2024/04/08 12:26:00;;;;;;;12.90;4.47;;;38.70;10.20;;;;;;5414518;26;20949;-69
2024/04/08 12:28:25;;;;;;;6.93;4.53;;;38.10;11.00;;;;;;5425778;26;20257;-67
2024/04/08 12:30:51;;;;;;;9.60;4.13;;;38.20;10.70;;;;;;5415230;26;20273;-68
2024/04/08 12:33:17;;;;;;;10.53;4.37;;;37.70;10.70;;;;;;5434906;26;20222;-67
2024/04/08 12:35:43;;;;;;;9.40;4.93;;;36.20;11.40;;;;;;5451169;26;20609;-68
2024/04/08 12:38:13;;;;;;;19.63;5.03;;;34.30;12.60;;;;;;5450820;26;20202;-68
2024/04/08 12:40:38;;;;;;;9.27;4.57;;;32.80;13.10;;;;;;5424430;26;20324;-67